Time;durP1;ratioP1;P1;durP2;ratioP2;P2;SDS_P1;SDS_P2;PMS_P1;PMS_P2;Temp;Humidity;BMP_temperature;BMP_pressure;BME280_temperature;BME280_humidity;BME280_pressure;Samples;Min_cycle;Max_cycle;Signal;HPM_P1;HPM_P2
2021/09/17 00:01:27;;;;;;;;;9.50;8.50;;;;;15.67;66.42;100645.97;5056294;28;45250;-86
2021/09/17 00:03:53;;;;;;;;;10.25;8.00;;;;;15.80;66.03;100672.72;5055922;28;45237;-86
2021/09/17 00:06:18;;;;;;;;;9.75;8.50;;;;;15.52;66.49;100645.31;5056271;28;45205;-86
2021/09/17 00:08:43;;;;;;;;;11.50;8.25;;;;;15.62;66.83;100668.72;5056483;28;45324;-86
2021/09/17 00:11:09;;;;;;;;;10.25;9.25;;;;;15.33;66.91;100637.78;5056366;28;45315;-86
2021/09/17 00:13:36;;;;;;;;;12.00;8.50;;;;;15.30;67.31;100639.81;5055725;28;46274;-86
2021/09/17 00:16:01;;;;;;;;;8.25;8.25;;;;;15.33;67.52;100648.50;5054354;28;45509;-86
2021/09/17 00:18:26;;;;;;;;;11.00;10.50;;;;;15.36;67.83;100658.13;5056244;28;45290;-86
2021/09/17 00:20:52;;;;;;;;;11.00;10.50;;;;;15.09;68.04;100615.47;5056208;28;45304;-87
2021/09/17 00:23:17;;;;;;;;;10.00;9.25;;;;;15.12;68.31;100617.91;5055786;28;45310;-86
2021/09/17 00:25:43;;;;;;;;;11.25;10.25;;;;;15.39;68.31;100662.41;5055625;28;45248;-86
2021/09/17 00:28:08;;;;;;;;;8.75;8.00;;;;;15.33;68.58;100651.19;5054575;28;45439;-86
2021/09/17 00:30:34;;;;;;;;;10.50;10.50;;;;;15.36;68.58;100653.63;5055875;28;45249;-86
2021/09/17 00:33:00;;;;;;;;;10.00;10.00;;;;;15.30;68.55;100637.16;5055855;28;46475;-85
2021/09/17 00:35:25;;;;;;;;;11.25;11.00;;;;;15.45;68.32;100661.94;5055931;28;45264;-86
2021/09/17 00:37:52;;;;;;;;;11.25;11.25;;;;;15.46;68.09;100659.16;5054192;28;45203;-86
2021/09/17 00:40:18;;;;;;;;;12.25;11.25;;;;;15.32;68.54;100632.50;5055743;28;45336;-86
2021/09/17 00:42:44;;;;;;;;;10.50;9.50;;;;;15.39;68.16;100652.56;5055519;28;46358;-86
2021/09/17 00:45:11;;;;;;;;;10.25;10.00;;;;;15.44;67.97;100655.72;5055180;28;45434;-85
2021/09/17 00:47:38;;;;;;;;;9.00;9.00;;;;;15.24;68.04;100621.53;5057324;28;45257;-85
2021/09/17 00:50:05;;;;;;;;;11.00;11.00;;;;;15.26;67.85;100636.50;5058692;28;45329;-85
2021/09/17 00:52:31;;;;;;;;;9.00;8.50;;;;;15.23;67.86;100630.53;5059044;28;45562;-86
2021/09/17 00:54:56;;;;;;;;;9.25;9.25;;;;;15.15;68.33;100628.44;5057094;28;45211;-85
2021/09/17 00:57:22;;;;;;;;;13.50;9.75;;;;;15.28;67.84;100655.16;5057482;28;45165;-85
2021/09/17 00:59:48;;;;;;;;;13.50;9.00;;;;;15.18;68.20;100636.25;5058667;28;45202;-85
2021/09/17 01:02:13;;;;;;;;;11.00;9.50;;;;;14.99;68.16;100609.94;5058732;28;45210;-86
2021/09/17 01:04:40;;;;;;;;;9.50;8.25;;;;;15.05;67.98;100619.34;5058357;28;45280;-86
2021/09/17 01:07:05;;;;;;;;;12.00;11.00;;;;;15.11;68.23;100637.66;5058963;28;45304;-85
2021/09/17 01:09:31;;;;;;;;;10.25;9.50;;;;;14.92;68.07;100612.22;5058579;28;45326;-85
2021/09/17 01:12:03;;;;;;;;;10.00;9.50;;;;;15.07;68.17;100642.38;5056932;28;47525;-86
2021/09/17 01:14:30;;;;;;;;;7.75;7.75;;;;;14.96;68.09;100624.41;5058678;28;45142;-84
2021/09/17 01:16:56;;;;;;;;;9.75;9.75;;;;;14.66;67.81;100585.53;5058618;28;45303;-86
2021/09/17 01:19:21;;;;;;;;;10.00;10.00;;;;;14.75;67.81;100593.81;5058490;28;45280;-85
2021/09/17 01:21:55;;;;;;;;;12.25;9.75;;;;;14.87;68.15;100614.38;5056826;28;48215;-86
2021/09/17 01:24:21;;;;;;;;;9.50;9.50;;;;;14.65;68.42;100582.94;5056970;28;45723;-86
2021/09/17 01:26:46;;;;;;;;;14.00;11.75;;;;;14.65;68.97;100581.13;5057170;28;45452;-86
2021/09/17 01:29:11;;;;;;;;;9.75;9.75;;;;;14.82;68.80;100613.84;5058332;28;45296;-86
2021/09/17 01:31:37;;;;;;;;;14.00;12.00;;;;;14.74;69.18;100598.34;5058411;28;45194;-86
2021/09/17 01:34:09;;;;;;;;;10.50;10.00;;;;;14.84;69.34;100614.59;5058216;28;45182;-86
2021/09/17 01:36:34;;;;;;;;;9.50;9.50;;;;;14.88;69.69;100610.72;5058515;28;45085;-86
2021/09/17 01:39:00;;;;;;;;;10.50;10.50;;;;;14.84;69.67;100602.06;5056905;28;45201;-86
2021/09/17 01:41:26;;;;;;;;;13.25;12.00;;;;;14.64;69.75;100559.84;5056643;28;47260;-85
2021/09/17 01:43:51;;;;;;;;;12.75;12.75;;;;;14.81;69.69;100594.25;5058184;28;45271;-85
2021/09/17 01:46:18;;;;;;;;;13.75;10.00;;;;;14.84;69.95;100596.69;5057225;28;45318;-86
2021/09/17 01:48:43;;;;;;;;;11.00;9.50;;;;;14.85;70.08;100584.19;5058294;28;45287;-85
2021/09/17 01:51:08;;;;;;;;;13.25;10.00;;;;;14.72;69.80;100553.91;5058061;28;45396;-85
2021/09/17 01:53:34;;;;;;;;;10.00;10.00;;;;;14.87;69.35;100581.41;5056373;28;45286;-86
2021/09/17 01:56:00;;;;;;;;;11.00;9.25;;;;;14.93;69.63;100584.47;5056708;28;45148;-85
2021/09/17 01:58:26;;;;;;;;;12.25;10.25;;;;;15.01;69.88;100592.78;5057355;28;45213;-85
2021/09/17 02:00:52;;;;;;;;;15.00;14.00;;;;;15.00;69.74;100584.88;5057218;28;46463;-85
2021/09/17 02:03:17;;;;;;;;;18.00;14.50;;;;;14.95;69.42;100574.50;5057687;28;45271;-85
2021/09/17 02:05:43;;;;;;;;;14.00;13.00;;;;;14.96;69.81;100570.88;5056461;28;45125;-85
2021/09/17 02:08:09;;;;;;;;;13.50;12.25;;;;;14.96;69.38;100564.66;5057859;28;45150;-85
2021/09/17 02:10:35;;;;;;;;;13.50;12.25;;;;;14.83;69.49;100540.59;5056142;28;47198;-85
2021/09/17 02:13:00;;;;;;;;;11.00;9.50;;;;;14.99;69.66;100565.28;5057583;28;45216;-85
2021/09/17 02:15:25;;;;;;;;;12.25;11.25;;;;;14.92;69.34;100547.09;5057916;28;45270;-85
2021/09/17 02:17:51;;;;;;;;;14.75;12.25;;;;;14.79;69.43;100520.38;5056180;28;45270;-85
2021/09/17 02:20:16;;;;;;;;;12.50;12.50;;;;;14.74;69.83;100519.88;5057436;28;45410;-86
2021/09/17 02:22:42;;;;;;;;;13.25;13.25;;;;;14.99;69.59;100557.25;5056208;28;45236;-86
2021/09/17 02:25:08;;;;;;;;;15.25;13.00;;;;;14.96;69.50;100557.50;5057166;28;45207;-86
2021/09/17 02:27:33;;;;;;;;;16.50;14.00;;;;;14.98;69.49;100557.38;5057906;28;45311;-86
2021/09/17 02:29:59;;;;;;;;;14.00;13.75;;;;;14.89;69.33;100542.81;5057075;28;46163;-85
2021/09/17 02:32:24;;;;;;;;;13.50;12.50;;;;;14.94;69.65;100559.41;5057263;28;45240;-85
2021/09/17 02:34:50;;;;;;;;;14.50;13.50;;;;;14.79;69.51;100533.75;5055976;28;45258;-85
2021/09/17 02:37:15;;;;;;;;;12.00;12.00;;;;;14.97;69.68;100569.88;5055985;28;45263;-85
2021/09/17 02:39:41;;;;;;;;;13.25;13.00;;;;;14.91;69.52;100556.97;5055629;28;47126;-85
2021/09/17 02:42:08;;;;;;;;;12.50;12.50;;;;;14.77;69.88;100535.72;5057347;28;45178;-85
2021/09/17 02:44:34;;;;;;;;;15.25;14.25;;;;;14.86;70.04;100548.41;5056955;28;45275;-85
2021/09/17 02:47:01;;;;;;;;;16.75;15.75;;;;;14.92;70.06;100561.34;5057560;28;45126;-86
2021/09/17 02:49:26;;;;;;;;;16.00;13.50;;;;;14.69;70.14;100522.03;5055649;28;47155;-86
2021/09/17 02:51:52;;;;;;;;;16.00;15.75;;;;;14.66;69.92;100515.06;5056796;28;45272;-85
2021/09/17 02:54:17;;;;;;;;;19.25;17.25;;;;;14.83;69.99;100543.28;5055618;28;45256;-86
2021/09/17 02:56:43;;;;;;;;;18.25;16.25;;;;;14.62;70.09;100501.09;5057133;28;45224;-86
2021/09/17 02:59:08;;;;;;;;;13.50;13.50;;;;;14.83;69.95;100537.94;5056867;28;46273;-86
2021/09/17 03:01:33;;;;;;;;;14.25;12.75;;;;;14.89;69.94;100545.50;5056840;28;45338;-85
2021/09/17 03:03:59;;;;;;;;;17.00;16.25;;;;;14.65;70.16;100506.19;5055431;28;45163;-86
2021/09/17 03:06:24;;;;;;;;;15.25;14.00;;;;;14.86;69.67;100537.69;5057042;28;45223;-84
2021/09/17 03:08:50;;;;;;;;;13.50;13.50;;;;;14.87;69.55;100538.56;5055417;28;47112;-86
2021/09/17 03:11:16;;;;;;;;;15.50;15.50;;;;;14.60;69.37;100491.41;5054946;28;45377;-86
2021/09/17 03:13:42;;;;;;;;;15.25;14.75;;;;;14.76;69.42;100520.63;5056618;28;45151;-86
2021/09/17 03:16:07;;;;;;;;;16.75;16.00;;;;;14.73;69.46;100526.19;5057103;28;45276;-85
2021/09/17 03:18:34;;;;;;;;;15.50;15.50;;;;;14.70;69.34;100521.06;5055282;28;47213;-85
2021/09/17 03:20:59;;;;;;;;;15.75;12.00;;;;;14.69;69.50;100527.38;5055960;28;45254;-85
2021/09/17 03:23:25;;;;;;;;;14.00;13.00;;;;;14.66;69.41;100528.44;5056862;28;45274;-85
2021/09/17 03:25:50;;;;;;;;;14.00;13.75;;;;;14.58;69.65;100517.41;5055211;28;45192;-85
2021/09/17 03:28:16;;;;;;;;;14.00;14.00;;;;;14.42;69.74;100482.91;5056386;28;45351;-85
2021/09/17 03:30:42;;;;;;;;;14.50;14.50;;;;;14.46;69.45;100503.13;5054864;28;45666;-86
2021/09/17 03:33:09;;;;;;;;;16.50;13.00;;;;;14.49;69.85;100503.78;5055064;28;45171;-85
2021/09/17 03:35:37;;;;;;;;;16.00;15.50;;;;;14.53;69.65;100517.75;5056595;28;45254;-85
2021/09/17 03:38:03;;;;;;;;;18.50;14.75;;;;;14.45;69.92;100506.75;5054777;28;47184;-85
2021/09/17 03:40:28;;;;;;;;;15.25;14.75;;;;;14.37;69.75;100496.63;5056572;28;45478;-85
2021/09/17 03:42:54;;;;;;;;;15.00;15.00;;;;;14.38;69.77;100498.34;5056599;28;45194;-85
2021/09/17 03:45:19;;;;;;;;;20.25;15.75;;;;;14.46;69.81;100511.16;5055071;28;45250;-86
2021/09/17 03:47:45;;;;;;;;;18.00;18.00;;;;;14.45;70.06;100512.09;5056324;28;45256;-85
2021/09/17 03:50:10;;;;;;;;;16.25;15.00;;;;;14.41;69.84;100516.84;5054895;28;45674;-85
2021/09/17 03:52:36;;;;;;;;;19.25;17.00;;;;;14.42;70.02;100510.53;5056551;28;45276;-84
2021/09/17 03:55:02;;;;;;;;;18.00;16.50;;;;;14.30;69.85;100498.03;5055923;28;45210;-86
2021/09/17 03:57:27;;;;;;;;;17.50;17.50;;;;;14.30;70.26;100498.03;5056235;28;45378;-85
2021/09/17 03:59:52;;;;;;;;;20.25;18.50;;;;;14.29;70.32;100497.19;5056270;28;45230;-85
2021/09/17 04:02:19;;;;;;;;;22.00;19.00;;;;;14.24;70.45;100485.09;5056127;28;45249;-85
2021/09/17 04:04:45;;;;;;;;;19.75;17.50;;;;;14.30;70.42;100498.03;5056002;28;45253;-85
2021/09/17 04:07:10;;;;;;;;;22.75;20.50;;;;;14.35;70.19;100511.06;5055920;28;46315;-85
2021/09/17 04:09:35;;;;;;;;;23.75;20.25;;;;;14.24;70.25;100493.97;5055945;28;45252;-85
2021/09/17 04:12:02;;;;;;;;;21.00;18.50;;;;;14.31;69.94;100511.28;5056187;28;45200;-85
2021/09/17 04:14:27;;;;;;;;;23.25;19.50;;;;;14.18;70.13;100491.75;5056504;28;45363;-86
2021/09/17 04:16:53;;;;;;;;;21.50;19.25;;;;;14.20;70.34;100507.69;5056390;28;45222;-87
2021/09/17 04:19:18;;;;;;;;;19.25;18.00;;;;;13.96;70.33;100463.84;5057637;28;45156;-87
2021/09/17 04:21:44;;;;;;;;;19.25;19.00;;;;;14.03;69.85;100480.31;5054564;28;45597;-85
2021/09/17 04:24:09;;;;;;;;;18.50;18.50;;;;;13.99;69.71;100473.47;5059509;28;45193;-85
2021/09/17 04:26:35;;;;;;;;;18.00;16.75;;;;;14.18;69.48;100514.94;5057820;28;47348;-85
2021/09/17 04:29:00;;;;;;;;;21.00;17.75;;;;;14.02;70.14;100497.31;5058070;28;45270;-86
2021/09/17 04:31:25;;;;;;;;;22.25;21.25;;;;;14.03;70.20;100501.69;5059604;28;45203;-86
2021/09/17 04:33:51;;;;;;;;;24.25;23.00;;;;;14.06;70.21;100505.97;5059246;28;45331;-85
2021/09/17 04:36:16;;;;;;;;;23.25;21.00;;;;;14.11;70.53;100517.22;5059463;28;45444;-85
2021/09/17 04:38:42;;;;;;;;;20.00;17.00;;;;;13.90;70.62;100479.50;5057657;28;45478;-85
2021/09/17 04:41:07;;;;;;;;;21.25;21.25;;;;;14.07;70.80;100502.34;5059288;28;45299;-85
2021/09/17 04:43:32;;;;;;;;;21.00;20.25;;;;;14.09;70.84;100516.44;5040851;28;45309;-80
2021/09/17 04:45:58;;;;;;;;;24.00;23.50;;;;;14.11;71.12;100510.03;5056871;28;47614;-81
2021/09/17 04:48:24;;;;;;;;;22.00;21.00;;;;;14.14;70.59;100512.50;5058200;28;45211;-81
2021/09/17 04:50:49;;;;;;;;;23.75;20.00;;;;;14.10;70.50;100499.47;5058297;28;45186;-81
2021/09/17 04:53:14;;;;;;;;;26.50;22.50;;;;;14.17;70.72;100516.78;5058578;28;45290;-81
2021/09/17 04:55:40;;;;;;;;;27.25;26.00;;;;;14.11;70.93;100501.19;5058415;28;45873;-81
2021/09/17 04:58:07;;;;;;;;;29.25;25.25;;;;;14.21;71.12;100517.38;5058631;28;45237;-80
2021/09/17 05:00:34;;;;;;;;;28.25;26.00;;;;;14.19;71.10;100506.81;5058492;28;45147;-81
2021/09/17 05:03:00;;;;;;;;;26.50;24.00;;;;;14.23;71.30;100510.13;5058213;28;45146;-81
2021/09/17 05:05:25;;;;;;;;;27.75;26.00;;;;;14.24;71.16;100511.84;5056642;28;47112;-81
2021/09/17 05:07:51;;;;;;;;;28.25;26.00;;;;;14.24;70.84;100506.50;5058209;28;45303;-81
2021/09/17 05:10:16;;;;;;;;;33.00;28.50;;;;;14.20;71.04;100494.31;5058496;28;45302;-81
2021/09/17 05:12:42;;;;;;;;;34.50;29.25;;;;;14.19;71.19;100495.28;5058388;28;45445;-89
2021/09/17 05:15:08;;;;;;;;;37.00;30.50;;;;;14.29;71.07;100509.69;5056801;28;48325;-90
2021/09/17 05:17:33;;;;;;;;;31.75;27.00;;;;;14.17;70.99;100481.16;5056765;28;45290;-86
2021/09/17 05:20:00;;;;;;;;;31.00;27.25;;;;;14.05;70.65;100461.50;5056674;28;45244;-87
2021/09/17 05:22:25;;;;;;;;;25.00;21.50;;;;;14.27;70.96;100509.78;5056964;28;45148;-86
2021/09/17 05:24:52;;;;;;;;;25.75;24.75;;;;;14.13;70.88;100485.88;5056554;28;47870;-87
2021/09/17 05:27:17;;;;;;;;;24.25;22.25;;;;;14.03;70.88;100471.44;5056520;28;45404;-87
2021/09/17 05:29:42;;;;;;;;;27.25;24.50;;;;;14.20;71.01;100500.50;5057910;28;45578;-86
2021/09/17 05:32:09;;;;;;;;;27.25;25.50;;;;;14.14;71.01;100503.63;5057863;28;45143;-85
2021/09/17 05:34:35;;;;;;;;;27.25;23.50;;;;;14.07;71.02;100486.31;5057619;28;45541;-86
2021/09/17 05:37:01;;;;;;;;;29.50;26.75;;;;;14.04;70.97;100487.38;5057963;28;45284;-85
2021/09/17 05:39:26;;;;;;;;;33.00;28.00;;;;;14.06;70.84;100489.94;5057941;28;45236;-85
2021/09/17 05:41:51;;;;;;;;;28.75;25.50;;;;;13.93;71.15;100463.22;5056378;28;45343;-85
2021/09/17 05:44:17;;;;;;;;;28.25;24.50;;;;;13.86;70.88;100444.09;5057609;28;46081;-85
2021/09/17 05:46:42;;;;;;;;;28.75;25.75;;;;;14.10;71.14;100496.78;5057738;28;45270;-85
2021/09/17 05:49:08;;;;;;;;;27.00;20.75;;;;;14.11;70.79;100495.84;5057727;28;45294;-85
2021/09/17 05:51:33;;;;;;;;;23.00;21.25;;;;;14.10;71.05;100500.31;5057962;28;45316;-85
2021/09/17 05:53:59;;;;;;;;;22.00;20.00;;;;;14.01;70.82;100484.94;5057520;28;45228;-85
2021/09/17 05:56:26;;;;;;;;;21.00;21.00;;;;;13.92;70.88;100474.88;5057638;28;45265;-85
2021/09/17 05:58:52;;;;;;;;;27.00;23.75;;;;;14.05;70.32;100496.25;5056127;28;45229;-85
2021/09/17 06:01:17;;;;;;;;;26.00;24.50;;;;;13.84;70.33;100459.41;5056318;28;45167;-85
2021/09/17 06:03:43;;;;;;;;;27.50;23.75;;;;;13.98;70.54;100486.00;5056058;28;47437;-85
2021/09/17 06:06:09;;;;;;;;;21.50;20.25;;;;;13.85;71.09;100455.72;5057740;28;45209;-86
2021/09/17 06:08:34;;;;;;;;;22.75;18.75;;;;;14.08;71.46;100488.88;5057429;28;45187;-85
2021/09/17 06:11:00;;;;;;;;;21.25;17.75;;;;;14.08;71.34;100485.31;5057652;28;45166;-86
2021/09/17 06:13:25;;;;;;;;;20.00;19.00;;;;;13.97;71.57;100451.34;5055704;28;47271;-86
2021/09/17 06:15:51;;;;;;;;;17.00;17.00;;;;;14.31;71.60;100489.06;5055664;28;45563;-86
2021/09/17 06:18:16;;;;;;;;;16.75;16.25;;;;;14.19;71.42;100457.84;5057520;28;45237;-85
2021/09/17 06:20:41;;;;;;;;;20.25;15.25;;;;;14.57;71.45;100488.97;5057221;28;45176;-86
2021/09/17 06:23:07;;;;;;;;;14.50;13.50;;;;;14.73;71.17;100491.41;5056777;28;46124;-85
2021/09/17 06:25:33;;;;;;;;;17.75;17.00;;;;;14.73;70.82;100464.66;5055954;28;45163;-85
2021/09/17 06:27:58;;;;;;;;;19.75;19.00;;;;;14.94;69.92;100476.41;5055723;28;45263;-86
2021/09/17 06:30:24;;;;;;;;;23.75;21.50;;;;;14.84;69.74;100441.44;5057377;28;45249;-85
2021/09/17 06:32:49;;;;;;;;;17.00;15.50;;;;;15.00;69.49;100451.84;5056775;28;45395;-85
2021/09/17 06:35:15;;;;;;;;;20.00;18.00;;;;;15.27;69.20;100465.94;5055637;28;45469;-85
2021/09/17 06:37:48;;;;;;;;;20.75;17.00;;;;;15.47;69.23;100475.13;5055679;28;45233;-85
2021/09/17 06:40:14;;;;;;;;;17.00;15.75;;;;;15.57;69.16;100464.56;5057001;28;45361;-84
2021/09/17 06:42:39;;;;;;;;;18.00;15.50;;;;;15.74;68.77;100455.19;5055487;28;48189;-85
2021/09/17 06:45:07;;;;;;;;;19.50;16.00;;;;;16.06;68.36;100476.78;5054631;28;45231;-85
2021/09/17 06:47:40;;;;;;;;;18.75;18.00;;;;;16.25;68.45;100472.63;5057076;28;45302;-86
2021/09/17 06:50:06;;;;;;;;;17.25;13.75;;;;;16.48;67.72;100466.25;5056998;28;45191;-85
2021/09/17 06:52:31;;;;;;;;;16.50;12.50;;;;;16.73;67.83;100462.41;5056669;28;45214;-86
2021/09/17 06:54:57;;;;;;;;;16.00;15.50;;;;;17.05;67.05;100484.91;5056529;28;45304;-84
2021/09/17 06:57:22;;;;;;;;;13.00;13.00;;;;;17.31;66.62;100481.88;5055458;28;45209;-85
2021/09/17 06:59:48;;;;;;;;;12.50;11.50;;;;;17.55;66.12;100485.13;5056738;28;45229;-86
2021/09/17 07:02:13;;;;;;;;;15.50;12.50;;;;;17.64;65.68;100453.06;5056541;28;45371;-86
2021/09/17 07:04:40;;;;;;;;;13.50;12.75;;;;;17.79;65.57;100434.75;5055158;28;45567;-85
2021/09/17 07:07:06;;;;;;;;;13.25;12.00;;;;;18.21;64.79;100458.88;5056975;28;45598;-85
2021/09/17 07:09:31;;;;;;;;;11.50;11.50;;;;;18.49;64.88;100465.31;5056369;28;45268;-85
2021/09/17 07:11:56;;;;;;;;;12.75;10.00;;;;;18.80;63.79;100466.06;5055139;28;47022;-86
2021/09/17 07:14:22;;;;;;;;;13.50;11.00;;;;;18.99;63.21;100456.31;5056353;28;45150;-85
2021/09/17 07:16:47;;;;;;;;;12.25;10.75;;;;;19.25;62.62;100467.38;5056642;28;45315;-86
2021/09/17 07:19:13;;;;;;;;;15.25;14.00;;;;;19.48;62.39;100472.44;5054882;28;45285;-86
2021/09/17 07:21:38;;;;;;;;;14.50;13.75;;;;;19.49;62.15;100464.19;5056753;28;45268;-86
2021/09/17 07:24:04;;;;;;;;;13.75;13.00;;;;;19.55;62.42;100460.06;5054972;28;45253;-85
2021/09/17 07:26:29;;;;;;;;;14.00;14.00;;;;;19.52;61.88;100429.88;5056727;28;45192;-86
2021/09/17 07:28:55;;;;;;;;;16.00;16.00;;;;;19.82;61.95;100456.63;5055906;28;45249;-85
2021/09/17 07:31:20;;;;;;;;;13.50;13.50;;;;;19.99;61.27;100457.72;5056117;28;46027;-86
2021/09/17 07:33:46;;;;;;;;;14.25;14.25;;;;;20.23;61.19;100460.88;5056154;28;45145;-85
2021/09/17 07:36:11;;;;;;;;;8.00;6.25;;;;;20.24;59.56;100443.69;5056368;28;45285;-85
2021/09/17 07:38:36;;;;;;;;;7.50;7.00;;;;;20.34;59.13;100447.16;5056175;28;45178;-85
2021/09/17 07:41:02;;;;;;;;;9.75;9.75;;;;;20.49;58.54;100469.97;5055832;28;45241;-86
2021/09/17 07:43:27;;;;;;;;;6.00;6.00;;;;;20.55;58.69;100462.22;5055908;28;45237;-86
2021/09/17 07:45:53;;;;;;;;;9.00;7.00;;;;;20.75;58.21;100471.94;5056267;28;45245;-85
2021/09/17 07:48:18;;;;;;;;;7.00;7.00;;;;;20.93;57.06;100481.91;5055869;28;45217;-85
2021/09/17 07:50:44;;;;;;;;;8.50;6.50;;;;;20.99;56.21;100479.44;5071423;28;47057;-86
2021/09/17 07:53:09;;;;;;;;;6.75;6.75;;;;;20.75;56.13;100458.44;5055738;28;45184;-86
2021/09/17 07:55:35;;;;;;;;;7.25;7.00;;;;;20.73;56.25;100463.13;5056172;28;45228;-87
2021/09/17 07:58:04;;;;;;;;;6.50;6.50;;;;;20.78;56.62;100486.97;5057737;28;45325;-86
2021/09/17 08:00:30;;;;;;;;;7.25;7.25;;;;;20.61;56.33;100465.19;5057989;28;46901;-86
2021/09/17 08:02:55;;;;;;;;;6.00;6.00;;;;;20.62;56.91;100476.81;5058926;28;45241;-86
2021/09/17 08:05:20;;;;;;;;;8.00;7.50;;;;;20.70;56.80;100471.53;5058170;28;45271;-85
2021/09/17 08:07:46;;;;;;;;;7.25;7.00;;;;;20.79;56.01;100475.19;5059636;28;45191;-86
2021/09/17 08:10:11;;;;;;;;;9.00;7.00;;;;;20.78;55.70;100463.53;5059201;28;45287;-85
2021/09/17 08:12:37;;;;;;;;;8.00;7.00;;;;;20.70;56.36;100447.22;5057720;28;45146;-86
2021/09/17 08:15:04;;;;;;;;;7.00;6.50;;;;;20.89;56.37;100473.25;5057864;28;45134;-85
2021/09/17 08:17:29;;;;;;;;;10.25;7.00;;;;;20.97;56.89;100467.09;5058183;28;45183;-86
2021/09/17 08:19:55;;;;;;;;;7.25;6.00;;;;;21.11;56.34;100465.69;5057451;28;46342;-86
2021/09/17 08:22:20;;;;;;;;;6.25;6.25;;;;;21.24;56.07;100446.38;5059668;28;45235;-86
2021/09/17 08:24:46;;;;;;;;;7.00;6.00;;;;;21.74;55.40;100477.34;5057591;28;45349;-85
2021/09/17 08:27:12;;;;;;;;;5.00;5.00;;;;;22.11;54.63;100485.16;5059352;28;45212;-85
2021/09/17 08:29:37;;;;;;;;;6.00;5.25;;;;;22.38;53.74;100477.84;5057476;28;47579;-86
2021/09/17 08:32:03;;;;;;;;;7.50;5.25;;;;;22.45;53.23;100459.94;5057530;28;45311;-85
2021/09/17 08:34:28;;;;;;;;;5.75;5.00;;;;;22.74;53.25;100478.44;5058926;28;45281;-85
2021/09/17 08:36:54;;;;;;;;;3.00;3.00;;;;;22.78;52.45;100442.91;5059320;28;45311;-86
2021/09/17 08:39:19;;;;;;;;;4.50;3.75;;;;;23.15;52.39;100471.44;5058674;28;46268;-85
2021/09/17 08:41:46;;;;;;;;;4.25;3.50;;;;;23.25;51.60;100462.09;5057289;28;45236;-86
2021/09/17 08:44:12;;;;;;;;;5.25;5.25;;;;;23.48;50.46;100479.53;5058776;28;45223;-86
2021/09/17 08:46:42;;;;;;;;;5.00;5.00;;;;;23.43;50.04;100480.91;5057365;28;45175;-86
2021/09/17 08:49:08;;;;;;;;;5.00;5.00;;;;;23.32;50.20;100473.09;5058718;28;46235;-86
2021/09/17 08:51:34;;;;;;;;;5.00;5.00;;;;;23.24;50.89;100460.41;5058501;28;45230;-86
2021/09/17 08:54:02;;;;;;;;;5.00;5.00;;;;;23.38;50.14;100469.69;5058420;28;45333;-87
2021/09/17 08:56:28;;;;;;;;;5.00;4.00;;;;;23.44;49.60;100482.59;5058762;28;45364;-86
2021/09/17 08:58:54;;;;;;;;;3.75;3.75;;;;;23.35;50.26;100482.78;5057151;28;46704;-86
2021/09/17 09:01:36;;;;;;;;;7.25;3.50;;;;;23.43;49.74;100474.63;5057208;28;45176;-86
2021/09/17 09:04:04;;;;;;;;;4.75;3.25;;;;;23.40;50.03;100458.69;5058299;28;45229;-85
2021/09/17 09:06:38;;;;;;;;;3.25;3.25;;;;;23.66;50.03;100485.63;5058758;28;45276;-85
2021/09/17 09:09:14;;;;;;;;;4.00;4.00;;;;;23.76;48.97;100463.72;5057626;28;45280;-86
2021/09/17 09:11:47;;;;;;;;;4.25;4.00;;;;;23.95;49.45;100467.94;5058844;28;45403;-87
2021/09/17 09:14:22;;;;;;;;;4.50;4.00;;;;;24.31;48.64;100472.88;5057546;28;45280;-86
2021/09/17 09:16:51;;;;;;;;;4.25;4.25;;;;;24.59;48.11;100475.13;5056955;28;45200;-85
2021/09/17 09:19:37;;;;;;;;;6.25;5.75;;;;;24.81;47.43;100470.75;5057903;28;45312;-86
2021/09/17 09:22:02;;;;;;;;;4.00;3.50;;;;;24.86;47.00;100459.38;5058293;28;45285;-85
2021/09/17 09:24:29;;;;;;;;;4.00;4.00;;;;;25.03;46.53;100474.53;5058184;28;45213;-85
2021/09/17 09:27:19;;;;;;;;;5.00;4.00;;;;;24.98;46.42;100463.31;5058904;28;45220;-85
2021/09/17 09:29:47;;;;;;;;;4.00;4.00;;;;;25.17;46.48;100464.72;5057718;28;46397;-85
2021/09/17 09:32:34;;;;;;;;;5.75;4.75;;;;;25.28;45.90;100461.56;5056620;28;45262;-86
2021/09/17 09:35:04;;;;;;;;;5.00;5.00;;;;;25.39;45.75;100446.69;5058097;28;45173;-86
2021/09/17 09:37:39;;;;;;;;;5.00;4.00;;;;;25.57;45.65;100446.34;5057920;28;45212;-85
2021/09/17 09:40:12;;;;;;;;;4.75;4.75;;;;;25.70;44.56;100444.88;5057933;28;46677;-87
2021/09/17 09:42:38;;;;;;;;;3.00;3.00;;;;;25.76;44.58;100457.72;5057948;28;45592;-86
2021/09/17 09:45:13;;;;;;;;;5.00;5.00;;;;;25.89;44.50;100459.78;5056929;28;45219;-86
2021/09/17 09:47:40;;;;;;;;;4.50;4.00;;;;;26.01;43.93;100448.28;5058095;28;45273;-87
2021/09/17 09:50:08;;;;;;;;;4.00;4.00;;;;;26.05;43.40;100456.06;5055921;28;48192;-87
2021/09/17 09:52:34;;;;;;;;;3.25;3.25;;;;;25.93;43.21;100436.59;5056298;28;45997;-86
2021/09/17 09:54:59;;;;;;;;;5.75;5.00;;;;;25.84;43.46;100417.63;5057598;28;45267;-86
2021/09/17 09:57:27;;;;;;;;;4.00;4.00;;;;;26.07;43.32;100443.94;5057826;28;45261;-85
2021/09/17 09:59:54;;;;;;;;;3.00;3.00;;;;;26.25;43.05;100453.59;5056529;28;47990;-86
2021/09/17 10:02:23;;;;;;;;;3.00;3.00;;;;;26.38;42.56;100450.19;5058091;28;45522;-86
2021/09/17 10:04:49;;;;;;;;;4.00;4.00;;;;;26.45;42.31;100442.94;5057627;28;45369;-86
2021/09/17 10:07:17;;;;;;;;;5.50;4.75;;;;;26.42;42.28;100419.63;5057898;28;45252;-86
2021/09/17 10:09:43;;;;;;;;;3.75;3.75;;;;;26.69;42.18;100445.34;5057521;28;45466;-86
2021/09/17 10:12:12;;;;;;;;;6.25;5.25;;;;;26.73;41.38;100414.97;5057556;28;45228;-86
2021/09/17 10:14:41;;;;;;;;;5.00;3.25;;;;;27.03;41.57;100448.38;5055933;28;45263;-86
2021/09/17 10:17:10;;;;;;;;;6.50;5.25;;;;;27.16;41.25;100448.53;5056225;28;45349;-86
2021/09/17 10:19:37;;;;;;;;;6.00;5.00;;;;;27.19;41.13;100428.16;5056620;28;45698;-85
2021/09/17 10:22:04;;;;;;;;;5.00;4.50;;;;;27.46;41.25;100437.41;5057351;28;45277;-86
2021/09/17 10:24:41;;;;;;;;;6.50;5.00;;;;;27.54;39.75;100429.09;5057356;28;45238;-85
2021/09/17 10:27:19;;;;;;;;;4.50;4.25;;;;;27.52;40.06;100442.09;5058016;28;45201;-86
2021/09/17 10:29:54;;;;;;;;;4.50;4.50;;;;;27.47;39.86;100439.13;5057204;28;46445;-87
2021/09/17 10:32:52;;;;;;;;;6.75;3.75;;;;;27.32;39.62;100436.47;5057089;28;45159;-85
2021/09/17 10:35:27;;;;;;;;;3.75;3.75;;;;;27.35;39.97;100433.38;5057736;28;45243;-86
2021/09/17 10:38:18;;;;;;;;;7.50;5.00;;;;;27.64;39.17;100430.63;5057379;28;45334;-87
2021/09/17 10:40:45;;;;;;;;;5.75;4.50;;;;;27.79;38.80;100428.63;5056997;28;46311;-86
2021/09/17 10:43:10;;;;;;;;;4.00;3.50;;;;;27.78;39.06;100431.56;5057309;28;45183;-86
2021/09/17 10:45:39;;;;;;;;;2.75;2.75;;;;;27.63;37.73;100398.91;5055920;28;45263;-86
2021/09/17 10:48:07;;;;;;;;;3.00;3.00;;;;;27.74;38.22;100414.72;5055629;28;45159;-87
2021/09/17 10:50:51;;;;;;;;;6.00;4.75;;;;;27.68;38.57;100421.81;5057301;28;46134;-87
2021/09/17 10:53:41;;;;;;;;;3.00;3.00;;;;;28.00;38.43;100424.97;5055109;28;45493;-87
2021/09/17 10:56:14;;;;;;;;;6.25;5.00;;;;;28.34;37.80;100415.00;5057479;28;45376;-87
2021/09/17 10:58:41;;;;;;;;;4.00;3.25;;;;;28.81;37.67;100417.88;5056839;28;45225;-87
2021/09/17 11:01:11;;;;;;;;;3.00;3.00;;;;;29.09;36.13;100412.22;5055645;28;47664;-87
2021/09/17 11:03:39;;;;;;;;;12.00;9.00;;;;;29.42;36.82;100416.03;5057095;28;45583;-87
2021/09/17 11:06:24;;;;;;;;;6.75;5.75;;;;;29.65;34.16;100418.28;5055671;28;45298;-87
2021/09/17 11:08:57;;;;;;;;;2.50;2.50;;;;;29.46;35.09;100400.00;5055392;28;45461;-87
2021/09/17 11:11:24;;;;;;;;;4.00;3.00;;;;;29.32;34.73;100416.44;5055311;28;48414;-87
2021/09/17 11:13:51;;;;;;;;;3.25;3.25;;;;;29.27;35.00;100414.38;5056740;28;45446;-87